Time;durP1;ratioP1;P1;durP2;ratioP2;P2;SDS_P1;SDS_P2;PMS_P1;PMS_P2;Temp;Humidity;BMP_temperature;BMP_pressure;BME280_temperature;BME280_humidity;BME280_pressure;Samples;Min_cycle;Max_cycle;Signal;HPM_P1;HPM_P2
2022/06/04 00:01:47;;;;;;;3.65;1.00;;;;;;;20.88;36.07;101687.97;16124345;19;132243;-55
2022/06/04 00:07:09;;;;;;;5.93;0.93;;;;;;;20.87;36.35;101692.72;16138100;19;129432;-56
2022/06/04 00:18:17;;;;;;;3.80;0.95;;;;;;;20.84;36.24;101668.16;16144284;19;128984;-50
2022/06/04 00:23:40;;;;;;;4.32;1.00;;;;;;;20.84;36.28;101665.38;16146754;19;129636;-51
2022/06/04 00:29:04;;;;;;;2.75;0.90;;;;;;;20.83;36.05;101680.38;16147045;19;129465;-51
2022/06/04 00:34:27;;;;;;;2.27;0.60;;;;;;;20.82;35.90;101683.41;16138885;19;129826;-55
2022/06/04 00:39:50;;;;;;;3.83;0.70;;;;;;;20.82;36.06;101695.34;16142027;19;129147;-51
2022/06/04 00:45:20;;;;;;;1.80;0.65;;;;;;;20.83;36.13;101696.22;16144591;19;129862;-54
2022/06/04 00:50:42;;;;;;;3.08;0.68;;;;;;;20.80;36.14;101691.97;16140787;19;129538;-53
2022/06/04 00:56:30;;;;;;;3.33;0.68;;;;;;;20.81;36.02;101685.31;16140842;19;129048;-52
2022/06/04 01:02:11;;;;;;;4.47;0.80;;;;;;;20.80;35.86;101691.97;16143747;19;129221;-54
2022/06/04 01:07:53;;;;;;;1.65;0.60;;;;;;;20.77;36.03;101709.16;16143436;19;129003;-54
2022/06/04 01:13:29;;;;;;;2.65;0.65;;;;;;;20.78;36.28;101710.00;16136114;19;130479;-54
2022/06/04 01:19:09;;;;;;;1.70;0.60;;;;;;;20.78;36.34;101710.84;16140168;19;129151;-53
2022/06/04 01:24:49;;;;;;;0.70;0.60;;;;;;;20.78;35.79;101732.25;16140166;19;129222;-54
2022/06/04 01:30:23;;;;;;;1.95;0.70;;;;;;;20.77;35.86;101720.28;16140287;19;129459;-55
2022/06/04 01:35:54;;;;;;;2.03;0.73;;;;;;;20.75;36.05;101736.31;16140600;19;129007;-54
2022/06/04 01:41:15;;;;;;;2.03;0.70;;;;;;;20.74;35.84;101743.81;16135392;19;129031;-52
2022/06/04 01:46:48;;;;;;;2.65;0.70;;;;;;;20.76;35.91;101740.84;16140042;19;130338;-54
2022/06/04 01:52:17;;;;;;;0.83;0.50;;;;;;;20.75;36.04;101744.66;16131791;19;130558;-55
2022/06/04 01:58:04;;;;;;;1.45;0.50;;;;;;;20.75;35.81;101739.09;16135845;19;129838;-54
2022/06/04 02:03:39;;;;;;;1.92;0.75;;;;;;;20.74;36.13;101737.41;16132777;19;129777;-54
2022/06/04 02:09:09;;;;;;;2.97;0.83;;;;;;;20.72;36.08;101729.31;16128712;19;129776;-54
2022/06/04 02:14:31;;;;;;;2.67;0.80;;;;;;;20.72;35.71;101728.47;16123946;19;130618;-53
2022/06/04 02:19:53;;;;;;;2.22;0.80;;;;;;;20.71;36.15;101722.06;16135391;19;130054;-50
2022/06/04 02:25:16;;;;;;;2.55;0.75;;;;;;;20.71;36.00;101710.94;16134633;19;129770;-54
2022/06/04 02:30:54;;;;;;;0.73;0.50;;;;;;;20.71;35.65;101699.81;16136060;19;129283;-52
2022/06/04 02:36:27;;;;;;;1.85;0.90;;;;;;;20.72;35.65;101686.75;16142085;19;129952;-54
2022/06/04 02:42:16;;;;;;;2.38;0.63;;;;;;;20.69;35.58;101682.53;16150434;19;129765;-54
2022/06/04 02:47:49;;;;;;;1.48;0.60;;;;;;;20.68;35.83;101689.19;16149972;19;128873;-54
2022/06/04 02:53:13;;;;;;;4.13;1.05;;;;;;;20.66;35.68;101680.22;16148167;19;129488;-55
2022/06/04 02:58:38;;;;;;;5.60;0.90;;;;;;;20.67;35.75;101687.47;16150082;19;130500;-53
2022/06/04 03:04:01;;;;;;;1.87;0.57;;;;;;;20.65;35.96;101672.97;16145435;19;129843;-56
2022/06/04 03:09:23;;;;;;;1.02;0.60;;;;;;;20.66;35.62;101657.16;16149140;19;130305;-54
2022/06/04 03:14:47;;;;;;;3.58;0.93;;;;;;;20.66;35.64;101657.97;16141816;19;129003;-55
2022/06/04 03:20:10;;;;;;;1.42;0.60;;;;;;;20.65;35.78;101652.69;16145044;19;129169;-53
2022/06/04 03:25:33;;;;;;;2.40;0.85;;;;;;;20.66;35.49;101668.28;16149234;19;129488;-51
2022/06/04 03:30:56;;;;;;;2.17;0.95;;;;;;;20.65;35.42;101681.31;16141161;19;129276;-53
2022/06/04 03:36:18;;;;;;;3.83;0.68;;;;;;;20.63;35.73;101672.34;16144280;19;130119;-55
2022/06/04 03:41:40;;;;;;;1.67;0.70;;;;;;;20.65;35.44;101688.81;16143346;19;130036;-53
2022/06/04 03:47:02;;;;;;;1.08;0.63;;;;;;;20.64;35.45;101698.25;16143273;19;130886;-53
2022/06/04 03:52:24;;;;;;;2.10;0.73;;;;;;;20.63;35.67;101700.16;16142163;19;129500;-56
2022/06/04 03:57:48;;;;;;;1.77;0.60;;;;;;;20.62;35.24;101708.75;16145192;19;129555;-55
2022/06/04 04:03:13;;;;;;;3.10;0.85;;;;;;;20.62;35.15;101719.88;16145379;19;129653;-56
2022/06/04 04:08:37;;;;;;;1.83;0.65;;;;;;;20.60;35.38;101737.66;16139987;19;129982;-56
2022/06/04 04:13:58;;;;;;;0.80;0.63;;;;;;;20.60;35.44;101743.19;16137621;19;129816;-53
2022/06/04 04:19:20;;;;;;;1.05;0.70;;;;;;;20.60;35.09;101745.16;16136079;19;130627;-54
2022/06/04 04:24:42;;;;;;;1.42;0.70;;;;;;;20.59;35.18;101763.75;16137777;19;130527;-54
2022/06/04 04:30:08;;;;;;;1.17;0.45;;;;;;;20.58;35.29;101767.59;16137176;19;129771;-52
2022/06/04 04:35:35;;;;;;;1.48;0.70;;;;;;;20.57;35.59;101765.09;16128547;19;129887;-56
2022/06/04 04:40:57;;;;;;;1.08;0.55;;;;;;;20.56;35.18;101777.28;16134984;19;130874;-52
2022/06/04 04:46:20;;;;;;;1.67;0.50;;;;;;;20.56;35.38;101782.84;16130587;19;132369;-53
2022/06/04 04:51:42;;;;;;;1.27;0.60;;;;;;;20.55;35.58;101779.22;16132765;19;129478;-54
2022/06/04 04:57:04;;;;;;;0.52;0.50;;;;;;;20.55;35.68;101773.66;16134452;19;131451;-55
2022/06/04 05:02:26;;;;;;;1.92;0.68;;;;;;;20.54;35.60;101777.53;16133760;19;130769;-53
2022/06/04 05:07:48;;;;;;;0.98;0.60;;;;;;;20.54;35.28;101776.66;16134674;19;129471;-53
2022/06/04 05:13:10;;;;;;;4.25;0.65;;;;;;;20.54;35.36;101776.66;16133502;19;130595;-53
2022/06/04 05:18:32;;;;;;;1.25;0.75;;;;;;;20.54;35.22;101787.78;16136308;19;129643;-55
2022/06/04 05:23:55;;;;;;;1.17;0.63;;;;;;;20.52;35.62;101801.94;16138846;19;129225;-51
2022/06/04 05:29:18;;;;;;;1.02;0.60;;;;;;;20.52;35.57;101798.28;16141695;19;129458;-53
2022/06/04 05:34:39;;;;;;;1.00;0.60;;;;;;;20.51;35.20;101797.47;16135541;19;129094;-52
2022/06/04 05:40:05;;;;;;;1.05;0.63;;;;;;;20.50;35.50;101804.09;16136422;19;129266;-54
2022/06/04 05:45:27;;;;;;;0.88;0.60;;;;;;;20.49;35.20;101796.00;16138234;19;129436;-52
2022/06/04 05:50:50;;;;;;;1.05;0.70;;;;;;;20.48;35.59;101800.72;16137001;19;129024;-55
2022/06/04 05:56:21;;;;;;;2.90;0.60;;;;;;;20.49;35.15;101784.91;16140413;19;129769;-55
2022/06/04 06:01:44;;;;;;;2.97;0.80;;;;;;;20.46;35.16;101797.31;16139339;19;129024;-54
2022/06/04 06:07:06;;;;;;;1.95;0.90;;;;;;;20.46;35.59;101794.53;16138071;19;129122;-55
2022/06/04 06:12:28;;;;;;;2.13;0.98;;;;;;;20.46;35.44;101808.44;16147560;19;129434;-55
2022/06/04 06:17:50;;;;;;;1.05;0.80;;;;;;;20.45;35.42;101827.06;16155158;19;129644;-49
2022/06/04 06:23:12;;;;;;;2.75;0.88;;;;;;;20.43;35.60;101848.69;16147488;19;129894;-54
2022/06/04 06:28:36;;;;;;;1.00;0.73;;;;;;;20.44;35.29;101850.38;16150251;19;129026;-55
2022/06/04 06:33:58;;;;;;;1.17;0.68;;;;;;;20.44;35.33;101860.63;16146609;19;129238;-56
2022/06/04 06:39:19;;;;;;;1.70;0.70;;;;;;;20.43;35.76;101864.53;16149408;19;129008;-54
2022/06/04 06:44:41;;;;;;;1.45;0.98;;;;;;;20.43;35.36;101853.41;16146692;19;130014;-54
2022/06/04 06:50:04;;;;;;;1.80;0.80;;;;;;;20.41;35.37;101853.63;16150699;19;129226;-58
2022/06/04 06:55:26;;;;;;;2.40;1.00;;;;;;;20.42;35.55;101862.81;16146632;19;129333;-55
2022/06/04 07:00:48;;;;;;;2.13;0.60;;;;;;;20.40;35.62;101853.88;16149816;19;130491;-54
2022/06/04 07:06:12;;;;;;;1.83;0.95;;;;;;;20.41;35.54;101861.94;16149050;19;128875;-53
2022/06/04 07:11:34;;;;;;;1.45;0.90;;;;;;;20.40;35.41;101856.66;16147974;19;129304;-54
2022/06/04 07:16:59;;;;;;;9.50;1.33;;;;;;;20.41;35.58;101856.41;16147745;19;131099;-62
2022/06/04 07:22:21;;;;;;;4.80;1.08;;;;;;;20.42;35.68;101860.03;16137078;19;129389;-52
2022/06/04 07:27:43;;;;;;;7.15;1.02;;;;;;;20.44;35.93;101855.06;16145196;19;128965;-54
2022/06/04 07:33:05;;;;;;;3.83;1.17;;;;;;;20.46;35.78;101841.78;16143003;19;130160;-51
2022/06/04 07:38:27;;;;;;;3.65;1.08;;;;;;;20.52;35.82;101846.41;16145950;19;129178;-53
2022/06/04 07:43:52;;;;;;;2.63;0.85;;;;;;;20.57;35.80;101849.31;16145246;19;129100;-53
2022/06/04 07:49:15;;;;;;;3.90;1.00;;;;;;;20.64;35.86;101860.34;16145901;19;129653;-54
2022/06/04 07:54:38;;;;;;;3.30;1.13;;;;;;;20.73;36.28;101846.94;16140692;19;128961;-50
2022/06/04 08:00:01;;;;;;;3.30;1.13;;;;;;;20.80;35.97;101835.75;16142143;19;129705;-56
2022/06/04 08:05:23;;;;;;;5.03;1.08;;;;;;;20.87;35.85;101826.22;16144107;19;129243;-52
2022/06/04 08:10:46;;;;;;;5.00;1.42;;;;;;;20.94;36.42;101811.31;16145224;19;129842;-50
2022/06/04 08:16:08;;;;;;;6.47;1.23;;;;;;;21.00;36.41;101824.28;16140135;19;128962;-56
2022/06/04 08:21:31;;;;;;;3.90;1.35;;;;;;;21.04;36.44;101836.63;16140699;19;129134;-51
2022/06/04 08:26:58;;;;;;;4.82;1.65;;;;;;;21.08;36.37;101851.75;16144362;19;129205;-56
2022/06/04 08:32:20;;;;;;;4.25;1.30;;;;;;;21.09;36.45;101860.94;16142958;19;129316;-66
2022/06/04 08:37:42;;;;;;;5.82;1.35;;;;;;;21.12;36.24;101863.22;16141275;19;130197;-61
2022/06/04 08:43:24;;;;;;;5.95;1.45;;;;;;;21.16;36.73;101856.09;16144498;19;129182;-66
2022/06/04 08:48:47;;;;;;;2.10;1.20;;;;;;;21.18;36.70;101853.94;16143699;19;129431;-64
2022/06/04 09:00:12;;;;;;;2.20;1.00;;;;;;;21.22;36.76;101860.72;16142889;19;129318;-64
2022/06/04 09:05:39;;;;;;;3.17;1.35;;;;;;;21.28;36.51;101867.25;16142686;19;129543;-64
2022/06/04 09:11:04;;;;;;;4.20;1.45;;;;;;;21.28;36.66;101870.03;16141778;19;128947;-61
2022/06/04 09:16:34;;;;;;;3.15;1.10;;;;;;;21.31;36.64;101859.25;16137517;19;130805;-56
2022/06/04 09:21:58;;;;;;;3.38;1.23;;;;;;;21.34;36.52;101855.13;16137039;19;130064;-64
2022/06/04 09:27:29;;;;;;;5.00;1.42;;;;;;;21.35;36.89;101848.47;16141241;19;129121;-64
2022/06/04 09:33:20;;;;;;;5.03;1.17;;;;;;;21.37;36.93;101851.88;16139498;19;128895;-56
2022/06/04 09:38:52;;;;;;;4.05;1.50;;;;;;;21.37;36.75;101851.88;16138069;19;130167;-52
2022/06/04 09:44:16;;;;;;;8.10;1.35;;;;;;;21.37;36.90;101860.22;16136541;19;129118;-53
2022/06/04 09:49:42;;;;;;;3.17;1.52;;;;;;;21.38;36.60;101864.72;16138962;19;129412;-54
2022/06/04 09:55:14;;;;;;;2.25;1.30;;;;;;;21.38;36.58;101870.28;16134512;19;129341;-54
2022/06/04 10:00:39;;;;;;;2.50;1.48;;;;;;;21.36;37.13;101873.28;16140280;19;130445;-54
2022/06/04 10:06:11;;;;;;;2.83;1.75;;;;;;;21.36;36.94;101872.44;16139125;19;129979;-54
2022/06/04 10:11:33;;;;;;;14.95;2.22;;;;;;;21.28;36.97;101886.75;16139217;19;131326;-55
2022/06/04 10:16:56;;;;;;;7.18;2.20;;;;;;;21.27;37.25;101891.44;16132296;19;129413;-54
2022/06/04 10:22:18;;;;;;;3.85;2.28;;;;;;;21.30;37.39;101898.44;16130788;19;129835;-57
2022/06/04 10:27:53;;;;;;;9.88;2.20;;;;;;;21.31;37.40;101903.78;16131800;19;130276;-55
2022/06/04 10:33:40;;;;;;;5.65;1.92;;;;;;;21.33;37.43;101900.75;16136213;19;129928;-55
2022/06/04 10:39:18;;;;;;;3.53;2.00;;;;;;;21.34;37.60;101897.75;16129250;19;130199;-53
2022/06/04 10:44:49;;;;;;;3.22;1.95;;;;;;;21.36;37.27;101889.16;16134324;19;130252;-56
2022/06/04 10:50:30;;;;;;;5.72;2.30;;;;;;;21.36;37.37;101884.41;16138559;19;130900;-55
2022/06/04 10:55:57;;;;;;;5.40;2.08;;;;;;;21.35;37.59;101865.19;16126914;19;130133;-56
2022/06/04 11:01:31;;;;;;;3.90;1.90;;;;;;;21.37;37.98;101849.09;16148196;19;131215;-55
2022/06/04 11:06:58;;;;;;;17.40;2.30;;;;;;;21.35;37.42;101848.47;16131203;19;130017;-55
2022/06/04 11:12:45;;;;;;;4.65;2.22;;;;;;;21.36;37.79;101855.75;16139919;19;130257;-55
2022/06/04 11:18:22;;;;;;;4.80;2.60;;;;;;;21.35;37.79;101860.44;16130031;19;130039;-56
2022/06/04 11:23:54;;;;;;;3.80;2.63;;;;;;;21.35;37.83;101860.44;16137927;19;129774;-53
2022/06/04 11:29:16;;;;;;;2.53;2.28;;;;;;;21.33;37.94;101864.56;16139794;19;130196;-55
2022/06/04 11:34:56;;;;;;;5.97;2.58;;;;;;;21.32;37.92;101860.97;16132812;19;131018;-54
2022/06/04 11:40:48;;;;;;;5.88;3.28;;;;;;;21.32;37.87;101843.41;16131904;19;130275;-54
2022/06/04 11:46:30;;;;;;;4.47;3.10;;;;;;;21.31;38.22;101827.78;16145192;19;130762;-52
2022/06/04 11:52:03;;;;;;;5.07;3.08;;;;;;;21.32;37.88;101827.56;16138830;19;130488;-55
2022/06/04 11:57:41;;;;;;;6.57;2.55;;;;;;;21.34;37.81;101824.53;16138316;19;129369;-53
2022/06/04 12:03:21;;;;;;;5.53;3.17;;;;;;;21.32;37.82;101815.56;16142125;19;129307;-55
2022/06/04 12:09:05;;;;;;;12.27;3.50;;;;;;;21.31;38.17;101814.72;16141896;19;129321;-54
2022/06/04 12:14:37;;;;;;;6.55;2.83;;;;;;;21.31;38.37;101809.16;16138974;19;130664;-55
2022/06/04 12:26:04;;;;;;;4.28;2.80;;;;;;;21.30;38.45;101813.03;16143015;19;130427;-54
2022/06/04 12:31:35;;;;;;;4.97;3.22;;;;;;;21.33;38.21;101815.34;16142879;19;129482;-56
2022/06/04 12:36:57;;;;;;;8.23;3.13;;;;;;;21.33;38.66;101809.78;16137914;19;129968;-53
2022/06/04 12:42:19;;;;;;;4.65;2.72;;;;;;;21.35;38.54;101809.53;16136566;19;130378;-56
2022/06/04 12:47:42;;;;;;;4.30;3.00;;;;;;;21.35;38.38;101799.22;16141398;19;130702;-51
2022/06/04 12:53:14;;;;;;;7.13;3.53;;;;;;;21.37;38.73;101799.00;16139767;19;130097;-55
2022/06/04 12:58:39;;;;;;;8.07;2.63;;;;;;;21.36;38.73;101784.22;16139849;19;128910;-54
2022/06/04 13:04:10;;;;;;;7.43;3.63;;;;;;;21.39;38.82;101774.56;16135463;19;130246;-56
2022/06/04 13:09:37;;;;;;;15.80;4.05;;;;;;;21.39;39.31;101788.47;16123132;19;131118;-56
2022/06/04 13:15:23;;;;;;;11.50;3.85;;;;;;;21.39;39.14;101788.47;16129350;19;129214;-55
2022/06/04 13:21:03;;;;;;;14.95;3.63;;;;;;;21.39;39.72;101782.03;16134122;19;129256;-55
2022/06/04 13:26:40;;;;;;;;;;;;;;;21.36;39.63;101780.59;16140423;19;129610;-55
2022/06/04 13:32:09;;;;;;;11.43;3.05;;;;;;;21.41;39.48;101774.28;16141321;19;129130;-56
2022/06/04 13:37:35;;;;;;;7.28;3.50;;;;;;;21.42;39.87;101784.34;16132038;19;129731;-52
2022/06/04 13:42:59;;;;;;;6.57;3.55;;;;;;;21.42;40.15;101776.00;16133594;19;130727;-52
2022/06/04 13:48:24;;;;;;;5.07;2.97;;;;;;;21.43;39.71;101764.59;16138462;19;130641;-53
2022/06/04 13:53:53;;;;;;;13.37;3.37;;;;;;;21.44;40.21;101765.47;16132938;19;129927;-55
2022/06/04 13:59:36;;;;;;;10.43;3.10;;;;;;;21.48;40.01;101764.72;16137287;19;130041;-55
2022/06/04 14:11:00;;;;;;;3.60;2.58;;;;;;;21.54;40.23;101762.91;16137045;19;129602;-54
2022/06/04 14:16:54;;;;;;;7.85;3.00;;;;;;;21.57;40.15;101756.00;16133402;19;130473;-55
2022/06/04 14:22:22;;;;;;;10.00;2.88;;;;;;;21.61;40.37;101757.22;16120763;19;129125;-53
2022/06/04 14:28:07;;;;;;;8.45;3.22;;;;;;;21.62;40.27;101748.59;16124690;19;129649;-55
2022/06/04 14:33:29;;;;;;;3.65;2.72;;;;;;;21.65;39.84;101736.97;16133787;19;130440;-54
2022/06/04 14:38:52;;;;;;;7.22;2.53;;;;;;;21.66;40.24;101735.06;16138733;19;129986;-52
2022/06/04 14:44:32;;;;;;;7.13;2.40;;;;;;;21.67;40.27;101725.59;16138798;19;130802;-54
2022/06/04 14:50:10;;;;;;;5.28;2.90;;;;;;;21.67;39.78;101725.59;16139314;19;129538;-52
2022/06/04 14:56:00;;;;;;;4.45;3.03;;;;;;;21.66;39.82;101718.34;16140512;19;129359;-53
2022/06/04 15:01:43;;;;;;;6.13;2.30;;;;;;;21.67;40.23;101706.09;16150375;19;130418;-50
2022/06/04 15:07:19;;;;;;;6.72;2.72;;;;;;;21.66;40.26;101699.69;16146722;19;130465;-53
2022/06/04 15:13:02;;;;;;;5.15;2.92;;;;;;;21.67;40.00;101700.50;16147099;19;129006;-57
2022/06/04 15:18:59;;;;;;;5.63;2.40;;;;;;;21.69;39.96;101703.06;16146817;19;131180;-57
2022/06/04 15:24:50;;;;;;;8.35;2.83;;;;;;;21.75;40.56;101686.22;16148001;19;129250;-57
2022/06/04 15:36:20;;;;;;;8.27;3.72;;;;;;;21.78;40.21;101679.28;16144771;19;128851;-52
2022/06/04 15:42:06;;;;;;;24.58;7.18;;;;;;;21.79;40.12;101673.47;16140710;19;129400;-52
2022/06/04 15:47:49;;;;;;;38.77;8.97;;;;;;;21.81;40.66;101668.50;16144896;19;130634;-53
2022/06/04 15:58:58;;;;;;;21.70;8.02;;;;;;;21.89;40.88;101674.78;16146443;19;129697;-51
2022/06/04 16:04:39;;;;;;;15.77;5.90;;;;;;;21.92;40.83;101668.66;16145085;19;129500;-54
2022/06/04 16:10:09;;;;;;;14.20;5.32;;;;;;;21.91;40.56;101672.59;16144387;19;129303;-55
2022/06/04 16:15:46;;;;;;;9.90;4.95;;;;;;;21.92;40.57;101672.31;16140290;19;129215;-51
2022/06/04 16:21:40;;;;;;;7.15;3.95;;;;;;;21.94;40.78;101661.78;16141408;19;131784;-55
2022/06/04 16:27:03;;;;;;;6.68;3.55;;;;;;;21.97;40.51;101646.50;16132994;19;130464;-53
2022/06/04 16:32:25;;;;;;;7.80;3.75;;;;;;;21.96;40.41;101642.88;16142104;19;129966;-55
2022/06/04 16:38:07;;;;;;;12.00;3.72;;;;;;;21.96;40.90;101642.88;16139252;19;129993;-55
2022/06/04 16:43:30;;;;;;;5.13;2.97;;;;;;;21.95;40.67;101634.75;16136272;19;128998;-53
2022/06/04 16:54:53;;;;;;;4.00;2.70;;;;;;;21.94;40.82;101636.69;16141697;19;129455;-54
2022/06/04 17:00:19;;;;;;;3.57;2.80;;;;;;;21.93;41.02;101620.22;16138820;19;129275;-52
2022/06/04 17:05:43;;;;;;;4.85;2.75;;;;;;;21.94;41.13;101631.13;16138031;19;128816;-55
2022/06/04 17:11:17;;;;;;;5.73;2.90;;;;;;;21.94;40.85;101638.63;16139933;19;130446;-53
2022/06/04 17:16:48;;;;;;;4.18;3.05;;;;;;;21.97;40.67;101638.13;16135213;19;128917;-52
2022/06/04 17:22:19;;;;;;;2.80;2.47;;;;;;;21.94;40.59;101636.69;16135858;19;129460;-55
2022/06/04 17:27:56;;;;;;;2.53;2.33;;;;;;;21.95;40.67;101623.59;16138114;19;130038;-51
2022/06/04 17:33:39;;;;;;;4.35;2.55;;;;;;;21.94;40.60;101627.47;16136397;19;129229;-53
2022/06/04 17:39:12;;;;;;;5.38;2.63;;;;;;;21.91;40.94;101619.66;16138272;19;129329;-53
2022/06/04 17:44:34;;;;;;;5.85;3.10;;;;;;;21.87;40.58;101615.66;16136491;19;130255;-54
2022/06/04 17:49:56;;;;;;;4.45;2.50;;;;;;;21.85;40.64;101621.47;16137903;19;128892;-55
2022/06/04 17:55:19;;;;;;;4.38;2.58;;;;;;;21.83;40.36;101610.59;16135848;19;130144;-52
2022/06/04 18:00:42;;;;;;;3.42;2.53;;;;;;;21.83;40.69;101609.78;16138786;19;129125;-54
2022/06/04 18:06:08;;;;;;;6.47;2.70;;;;;;;21.81;40.53;101607.22;16136208;19;129331;-54
2022/06/04 18:11:31;;;;;;;4.68;2.47;;;;;;;21.80;40.60;101599.13;16136842;19;129248;-56
2022/06/04 18:16:53;;;;;;;2.40;2.20;;;;;;;21.78;40.73;101601.31;16132379;19;131658;-55
2022/06/04 18:22:15;;;;;;;6.45;2.50;;;;;;;21.75;40.90;101597.09;16130347;19;128900;-55
2022/06/04 18:27:36;;;;;;;5.65;2.60;;;;;;;21.74;40.77;101600.97;16137158;19;130062;-51
2022/06/04 18:32:59;;;;;;;3.70;2.40;;;;;;;21.70;40.88;101585.84;16135826;19;129711;-53
2022/06/04 18:38:20;;;;;;;3.88;2.50;;;;;;;21.69;40.92;101589.72;16129489;19;128993;-53
2022/06/04 18:55:04;;;;;;;4.03;2.58;;;;;;;21.62;40.51;101594.63;16118687;19;129304;-52
2022/06/04 19:00:26;;;;;;;6.57;3.30;;;;;;;21.60;40.78;101605.16;16123172;19;130469;-55
2022/06/04 19:05:48;;;;;;;6.60;3.33;;;;;;;21.59;41.10;101618.25;16129496;19;129620;-57
2022/06/04 19:17:07;;;;;;;2.33;2.10;;;;;;;21.54;41.09;101607.00;16122616;19;130241;-53
2022/06/04 19:28:12;;;;;;;3.95;2.13;;;;;;;21.51;41.25;101619.50;16139767;19;132182;-53
2022/06/04 19:33:34;;;;;;;4.40;2.30;;;;;;;21.50;41.18;101620.59;16136894;19;129491;-54
2022/06/04 19:38:56;;;;;;;3.45;2.00;;;;;;;21.49;41.31;101621.69;16132813;19;129118;-52
2022/06/04 19:44:19;;;;;;;4.35;2.33;;;;;;;21.48;40.90;101630.22;16138907;19;130561;-53
2022/06/04 19:49:47;;;;;;;2.90;1.98;;;;;;;21.47;41.35;101626.63;16138713;19;129254;-53
2022/06/04 19:55:10;;;;;;;3.50;2.17;;;;;;;21.46;41.15;101638.00;16147054;19;129885;-54
2022/06/04 20:00:32;;;;;;;4.28;2.10;;;;;;;21.44;41.37;101641.03;16147301;19;129831;-54
2022/06/04 20:05:54;;;;;;;2.55;2.33;;;;;;;21.44;41.32;101626.28;16143759;19;129936;-51
2022/06/04 20:11:17;;;;;;;5.97;1.95;;;;;;;21.41;41.22;101619.28;16140527;19;129466;-55
2022/06/04 20:16:39;;;;;;;3.28;2.00;;;;;;;21.42;41.05;101629.28;16134670;19;129206;-55
2022/06/04 20:22:01;;;;;;;6.68;2.40;;;;;;;21.43;41.05;101642.13;16141003;19;129252;-55
2022/06/04 20:27:23;;;;;;;17.30;2.70;;;;;;;21.42;41.49;101632.06;16143609;19;129649;-56
2022/06/04 20:32:44;;;;;;;12.18;2.80;;;;;;;21.43;41.28;101630.16;16144425;19;131369;-56
2022/06/04 20:38:06;;;;;;;2.83;2.35;;;;;;;21.44;41.18;101627.09;16138286;19;130380;-55
2022/06/04 20:43:29;;;;;;;7.07;2.30;;;;;;;21.46;41.12;101615.75;16136428;19;131676;-54
2022/06/04 20:48:52;;;;;;;11.43;2.85;;;;;;;21.46;41.40;101599.88;16143875;19;128863;-54
2022/06/04 20:54:16;;;;;;;14.65;2.75;;;;;;;21.47;41.45;101601.56;16139820;19;130304;-53
2022/06/04 20:59:39;;;;;;;7.72;2.40;;;;;;;21.49;41.68;101593.84;16132480;19;129851;-53
2022/06/04 21:05:01;;;;;;;7.90;1.95;;;;;;;21.49;41.51;101598.53;16133566;19;129802;-55
2022/06/04 21:10:30;;;;;;;5.25;1.70;;;;;;;21.49;41.89;101599.41;16137975;19;130121;-55
2022/06/04 21:15:52;;;;;;;3.95;2.10;;;;;;;21.50;41.29;101597.47;16131162;19;130409;-55
2022/06/04 21:21:14;;;;;;;3.47;2.20;;;;;;;21.48;41.27;101597.69;16129583;19;129777;-54
2022/06/04 21:26:43;;;;;;;10.88;2.22;;;;;;;21.47;41.37;101601.56;16137503;19;129160;-56
2022/06/04 21:32:08;;;;;;;6.75;1.90;;;;;;;21.47;41.24;101606.31;16135035;19;129760;-55
2022/06/04 21:37:42;;;;;;;3.97;1.98;;;;;;;21.45;41.28;101603.75;16132707;19;129512;-55
2022/06/04 21:43:04;;;;;;;2.72;1.80;;;;;;;21.42;41.23;101609.81;16125423;19;129033;-55
2022/06/04 21:48:28;;;;;;;4.32;2.25;;;;;;;21.41;41.18;101608.16;16133563;19;129497;-57
2022/06/04 21:53:50;;;;;;;2.92;1.98;;;;;;;21.42;40.99;101618.16;16133241;19;129147;-57
2022/06/04 21:59:12;;;;;;;1.60;1.50;;;;;;;21.39;41.28;101609.47;16130682;19;130292;-54
2022/06/04 22:04:34;;;;;;;3.55;1.90;;;;;;;21.37;41.33;101584.66;16132703;19;129822;-56
2022/06/04 22:09:56;;;;;;;2.60;1.83;;;;;;;21.35;41.42;101581.28;16138034;19;129311;-55
2022/06/04 22:15:20;;;;;;;2.60;1.70;;;;;;;21.35;41.20;101584.06;16137017;19;129473;-56
2022/06/04 22:20:44;;;;;;;3.15;1.58;;;;;;;21.33;41.21;101594.59;16132693;19;129594;-56
2022/06/04 22:26:05;;;;;;;1.67;1.50;;;;;;;21.33;41.17;101580.69;16136353;19;129381;-55
2022/06/04 22:31:27;;;;;;;2.80;1.40;;;;;;;21.32;41.36;101581.78;16136050;19;129601;-56
2022/06/04 22:36:49;;;;;;;3.10;1.70;;;;;;;21.31;41.16;101580.09;16135317;19;131079;-56
2022/06/04 22:42:11;;;;;;;2.00;1.40;;;;;;;21.30;41.39;101573.69;16131936;19;131127;-55
2022/06/04 22:47:33;;;;;;;2.70;1.70;;;;;;;21.29;41.31;101560.03;16136003;19;130726;-56
2022/06/04 22:52:55;;;;;;;1.88;1.27;;;;;;;21.29;41.41;101548.91;16142910;19;129883;-56
2022/06/04 22:58:19;;;;;;;2.55;1.50;;;;;;;21.28;41.35;101547.22;16143981;19;129045;-56
2022/06/04 23:03:40;;;;;;;2.50;1.20;;;;;;;21.27;41.56;101535.22;16148978;19;129615;-54
2022/06/04 23:09:04;;;;;;;2.42;1.23;;;;;;;21.27;41.40;101542.75;16147480;19;129102;-56
2022/06/04 23:26:02;;;;;;;1.50;1.20;;;;;;;21.25;41.26;101547.69;16149555;19;128890;-55
2022/06/04 23:31:24;;;;;;;1.00;0.95;;;;;;;21.24;41.50;101615.59;16148048;19;128818;-56
2022/06/04 23:36:46;;;;;;;1.58;1.10;;;;;;;21.22;41.34;101622.22;16146166;19;129362;-56
2022/06/04 23:42:08;;;;;;;1.30;1.20;;;;;;;21.25;41.33;101617.28;16144561;19;129524;-55
2022/06/04 23:47:30;;;;;;;2.30;1.20;;;;;;;21.22;41.60;101627.81;16146302;19;129405;-56
2022/06/04 23:52:52;;;;;;;1.52;1.20;;;;;;;21.24;41.38;101598.88;16146974;19;129482;-56
2022/06/04 23:58:16;;;;;;;1.85;1.25;;;;;;;21.22;41.16;101594.41;16144185;19;129463;-50
